Southern Ontario METAR Reports

CYSN - St.Catharines
Updated: 01/27/2020 9:00pm
NOT Current
Overcast
Overcast
 Wind from NW
Wind: NW 15 km/h
Temperature: 1°C
Wind Chill: -3°C
Dew Point: -1°C
Humidity: 87%
Barometer: 1010.8 hPa
Clouds: Overcast
Visibility: 24 km
Cloud details: Overcast 610 m
2020/01/28 02:00 CYSN 280200Z 31008KT 15SM OVC020 01/M01 A2985 RMK SC8 LAST STFD OBS/NEXT 28 1200UTC SLP113
CYHM - Hamilton
Updated: 01/27/2020 11:00pm
Overcast
Overcast
 Wind from WNW
Wind: WNW 19 km/h
Temperature: 0°C
Wind Chill: -5°C
Dew Point: -3°C
Humidity: 80%
Barometer: 1011.2 hPa
Clouds: Overcast
Visibility: 24 km
Cloud details: Overcast 1006 m
2020/01/28 04:00 CYHM 280400Z 29010KT 15SM OVC033 M00/M03 A2986 RMK SC8 SLP123
 
CYYZ - Toronto
Updated: 01/27/2020 11:00pm
Mostly cloudy
Mostly cloudy
 Wind from NNW
Wind: NNW 17 km/h
Temperature: 0°C
Wind Chill: -4°C
Dew Point: -3°C
Humidity: 80%
Barometer: 1010.5 hPa
Clouds: Mostly cloudy
Visibility: 24 km
Cloud details: Partly cloudy 701 m
Mostly cloudy 1128 m
2020/01/28 04:00 CYYZ 280400Z 33009KT 300V010 15SM SCT023 BKN037 00/M03 A2984 RMK SC3SC4 SLP114
CYKF - Waterloo
Updated: 01/27/2020 11:00pm
Overcast
Overcast
 Wind from WNW
Wind: WNW 13 km/h
Temperature: -1°C
Wind Chill: -6°C
Dew Point: -3°C
Humidity: 86%
Barometer: 1010.8 hPa
Clouds: Overcast
Visibility: 14 km
Cloud details: Overcast 335 m
2020/01/28 04:00 CYKF 280400Z AUTO 30007KT 9SM OVC011 M01/M03 A2985 RMK SLP123
 
CYXU - London
Updated: 01/27/2020 11:31pm
Light snow, Overcast
Light snow, Overcast
 Wind from WNW
Wind: WNW 9 km/h
Temperature: 0°C
Wind Chill: -3°C
Dew Point: -1°C
Humidity: 93%
Barometer: 1012.2 hPa
Summary: Light Snow
Clouds: Overcast
Visibility: 16 km
Cloud details: Mostly cloudy 213 m
Overcast 457 m
2020/01/28 04:31 CYXU 280431Z 30005KT 10SM -SN BKN007 OVC015 M00/M01 A2989 RMK SF5SC3 SLP135
CYQG - Windsor
Updated: 01/27/2020 11:00pm
Overcast
Overcast
 Wind from W
Wind: W 13 km/h
Temperature: 2°C
Wind Chill: -1°C
Dew Point: -1°C
Humidity: 81%
Barometer: 1014.6 hPa
Clouds: Overcast
Visibility: 14 km
Cloud details: Overcast 884 m
2020/01/28 04:00 CYQG 280400Z AUTO 27007KT 9SM OVC029 02/M01 A2996 RMK SLP152
 
CYZR - Sarnia
Updated: 01/27/2020 11:00pm
Overcast
Overcast
 Wind from NW
Wind: NW 11 km/h
Temperature: 1°C
Wind Chill: -2°C
Dew Point: -2°C
Humidity: 81%
Barometer: 1013.9 hPa
Clouds: Overcast
Visibility: 14 km
Cloud details: Mostly cloudy 975 m
Overcast 1829 m
2020/01/28 04:00 CYZR 280400Z AUTO 31006KT 9SM BKN032 OVC060 01/M02 A2994 RMK SLP146
CYVV - Wiarton
Updated: 01/27/2020 11:00pm
Overcast
Overcast
 Wind from NNW
Wind: NNW 11 km/h
Temperature: -1°C
Wind Chill: -5°C
Dew Point: -3°C
Humidity: 86%
Barometer: 1011.9 hPa
Clouds: Overcast
Visibility: 16 km
Cloud details: Few Clouds 457 m
Overcast 762 m
2020/01/28 04:00 CYVV 280400Z 33006KT 290V350 10SM FEW015 OVC025 M01/M03 A2988 RMK SC2SC6 SLP129
 
CYPQ - Peterborough
Updated: 01/27/2020 11:00pm
Overcast
Overcast
 Wind from NNW
Wind: NNW 20 km/h, Gust: 30 km/h
Temperature: -1°C
Wind Chill: -7°C
Dew Point: -3°C
Humidity: 86%
Barometer: 1009.5 hPa
Clouds: Overcast
Visibility: 14 km
Cloud details: Mostly cloudy 457 m
Overcast 610 m
2020/01/28 04:00 CYPQ 280400Z AUTO 33011G16KT 9SM BKN015 OVC020 M01/M03 A2981 RMK SLP104
CYTR - Trenton
Updated: 01/27/2020 11:00pm
Mostly cloudy
Mostly cloudy
 Wind from N
Wind: N 13 km/h
Temperature: 0°C
Wind Chill: -4°C
Dew Point: -6°C
Humidity: 64%
Barometer: 1009.5 hPa
Clouds: Mostly cloudy
Visibility: 24 km
Cloud details: Mostly cloudy 610 m
2020/01/28 04:00 CYTR 280400Z 01007KT 15SM BKN020 M00/M06 A2981 RMK SC6 SLP100